sensor_id;sensor_type;location;lat;lon;timestamp;pressure;altitude;pressure_sealevel;temperature;humidity
70217;BME280;65567;55.684;37.570;2024-03-06T00:01:54;100241.81;;;0.11;45.82
70217;BME280;65567;55.684;37.570;2024-03-06T00:04:20;100248.69;;;0.09;45.75
70217;BME280;65567;55.684;37.570;2024-03-06T00:06:45;100242.66;;;0.04;45.82
70217;BME280;65567;55.684;37.570;2024-03-06T00:09:11;100240.97;;;0.09;45.93
70217;BME280;65567;55.684;37.570;2024-03-06T00:11:37;100241.75;;;0.01;46.20
70217;BME280;65567;55.684;37.570;2024-03-06T00:14:03;100237.44;;;-0.01;46.10
70217;BME280;65567;55.684;37.570;2024-03-06T00:16:31;100242.53;;;-0.07;46.23
70217;BME280;65567;55.684;37.570;2024-03-06T00:18:57;100244.25;;;-0.09;46.45
70217;BME280;65567;55.684;37.570;2024-03-06T00:21:22;100240.78;;;-0.11;46.35
70217;BME280;65567;55.684;37.570;2024-03-06T00:23:48;100240.78;;;-0.12;46.10
70217;BME280;65567;55.684;37.570;2024-03-06T00:26:14;100247.59;;;-0.19;46.12
70217;BME280;65567;55.684;37.570;2024-03-06T00:28:39;100250.84;;;-0.36;46.10
70217;BME280;65567;55.684;37.570;2024-03-06T00:31:05;100249.16;;;-0.34;46.16
70217;BME280;65567;55.684;37.570;2024-03-06T00:33:31;100250.91;;;-0.32;45.97
70217;BME280;65567;55.684;37.570;2024-03-06T00:35:57;100249.16;;;-0.34;45.92
70217;BME280;65567;55.684;37.570;2024-03-06T00:38:23;100246.59;;;-0.34;45.97
70217;BME280;65567;55.684;37.570;2024-03-06T00:40:48;100252.50;;;-0.39;46.08
70217;BME280;65567;55.684;37.570;2024-03-06T00:43:14;100251.69;;;-0.37;46.06
70217;BME280;65567;55.684;37.570;2024-03-06T00:45:40;100245.63;;;-0.42;46.03
70217;BME280;65567;55.684;37.570;2024-03-06T00:48:07;100262.78;;;-0.44;45.88
70217;BME280;65567;55.684;37.570;2024-03-06T00:50:36;100252.41;;;-0.50;46.03
70217;BME280;65567;55.684;37.570;2024-03-06T00:53:02;100256.56;;;-0.63;46.03
70217;BME280;65567;55.684;37.570;2024-03-06T00:55:29;100260.84;;;-0.63;46.05
70217;BME280;65567;55.684;37.570;2024-03-06T00:57:55;100264.25;;;-0.68;46.04
70217;BME280;65567;55.684;37.570;2024-03-06T01:00:22;100253.03;;;-0.73;46.01
70217;BME280;65567;55.684;37.570;2024-03-06T01:02:50;100254.78;;;-0.69;46.15
70217;BME280;65567;55.684;37.570;2024-03-06T01:05:16;100250.41;;;-0.76;46.10
70217;BME280;65567;55.684;37.570;2024-03-06T01:07:42;100246.06;;;-0.83;45.97
70217;BME280;65567;55.684;37.570;2024-03-06T01:10:08;100245.97;;;-0.89;46.18
70217;BME280;65567;55.684;37.570;2024-03-06T01:12:35;100233.06;;;-0.92;46.04
70217;BME280;65567;55.684;37.570;2024-03-06T01:15:00;100235.69;;;-0.86;46.02
70217;BME280;65567;55.684;37.570;2024-03-06T01:17:26;100248.53;;;-0.89;45.85
70217;BME280;65567;55.684;37.570;2024-03-06T01:19:52;100239.00;;;-0.98;45.83
70217;BME280;65567;55.684;37.570;2024-03-06T01:22:18;100244.22;;;-0.93;45.87
70217;BME280;65567;55.684;37.570;2024-03-06T01:24:44;100247.59;;;-0.96;45.79
70217;BME280;65567;55.684;37.570;2024-03-06T01:27:13;100245.00;;;-0.97;45.77
70217;BME280;65567;55.684;37.570;2024-03-06T01:29:39;100225.13;;;-1.09;45.74
70217;BME280;65567;55.684;37.570;2024-03-06T01:32:05;100246.66;;;-1.03;45.80
70217;BME280;65567;55.684;37.570;2024-03-06T01:34:30;100249.25;;;-1.00;45.86
70217;BME280;65567;55.684;37.570;2024-03-06T01:36:56;100251.75;;;-1.04;45.74
70217;BME280;65567;55.684;37.570;2024-03-06T01:39:22;100241.47;;;-1.06;45.77
70217;BME280;65567;55.684;37.570;2024-03-06T01:41:49;100241.25;;;-1.21;45.90
70217;BME280;65567;55.684;37.570;2024-03-06T01:44:16;100249.88;;;-1.19;46.03
70217;BME280;65567;55.684;37.570;2024-03-06T01:46:43;100255.81;;;-1.22;45.95
70217;BME280;65567;55.684;37.570;2024-03-06T01:49:11;100261.88;;;-1.18;45.99
70217;BME280;65567;55.684;37.570;2024-03-06T01:51:38;100254.91;;;-1.25;45.74
70217;BME280;65567;55.684;37.570;2024-03-06T01:54:04;100251.41;;;-1.32;45.78
70217;BME280;65567;55.684;37.570;2024-03-06T01:56:32;100254.06;;;-1.27;45.83
70217;BME280;65567;55.684;37.570;2024-03-06T01:58:59;100262.63;;;-1.25;45.63
70217;BME280;65567;55.684;37.570;2024-03-06T02:01:24;100249.66;;;-1.33;45.95
70217;BME280;65567;55.684;37.570;2024-03-06T02:03:52;100260.84;;;-1.33;45.72
70217;BME280;65567;55.684;37.570;2024-03-06T02:06:18;100262.53;;;-1.33;45.96
70217;BME280;65567;55.684;37.570;2024-03-06T02:08:45;100263.34;;;-1.36;45.85
70217;BME280;65567;55.684;37.570;2024-03-06T02:11:11;100262.38;;;-1.44;45.89
70217;BME280;65567;55.684;37.570;2024-03-06T02:13:39;100263.22;;;-1.43;45.96
70217;BME280;65567;55.684;37.570;2024-03-06T02:16:05;100266.59;;;-1.46;45.92
70217;BME280;65567;55.684;37.570;2024-03-06T02:18:31;100264.84;;;-1.50;45.77
70217;BME280;65567;55.684;37.570;2024-03-06T02:20:57;100261.34;;;-1.55;46.03
70217;BME280;65567;55.684;37.570;2024-03-06T02:23:23;100264.81;;;-1.53;45.60
70217;BME280;65567;55.684;37.570;2024-03-06T02:25:49;100260.59;;;-1.50;45.61
70217;BME280;65567;55.684;37.570;2024-03-06T02:28:15;100256.25;;;-1.52;45.60
70217;BME280;65567;55.684;37.570;2024-03-06T02:30:42;100263.09;;;-1.51;45.58
70217;BME280;65567;55.684;37.570;2024-03-06T02:33:08;100254.53;;;-1.53;45.79
70217;BME280;65567;55.684;37.570;2024-03-06T02:35:37;100240.78;;;-1.55;45.70
70217;BME280;65567;55.684;37.570;2024-03-06T02:38:05;100257.09;;;-1.53;45.80
70217;BME280;65567;55.684;37.570;2024-03-06T02:40:32;100251.13;;;-1.52;45.79
70217;BME280;65567;55.684;37.570;2024-03-06T02:42:58;100255.41;;;-1.51;45.83
70217;BME280;65567;55.684;37.570;2024-03-06T02:45:23;100254.53;;;-1.53;45.77
70217;BME280;65567;55.684;37.570;2024-03-06T02:47:49;100263.88;;;-1.57;45.99
70217;BME280;65567;55.684;37.570;2024-03-06T02:50:15;100255.25;;;-1.60;46.11
70217;BME280;65567;55.684;37.570;2024-03-06T02:52:41;100272.50;;;-1.53;46.08
70217;BME280;65567;55.684;37.570;2024-03-06T02:55:07;100274.28;;;-1.51;46.16
70217;BME280;65567;55.684;37.570;2024-03-06T02:57:33;100282.03;;;-1.44;46.10
70217;BME280;65567;55.684;37.570;2024-03-06T02:59:59;100284.59;;;-1.47;46.17
70217;BME280;65567;55.684;37.570;2024-03-06T03:02:25;100283.72;;;-1.48;46.13
70217;BME280;65567;55.684;37.570;2024-03-06T03:04:51;100290.53;;;-1.50;46.20
70217;BME280;65567;55.684;37.570;2024-03-06T03:07:18;100293.09;;;-1.52;46.30
70217;BME280;65567;55.684;37.570;2024-03-06T03:09:45;100295.69;;;-1.50;46.23
70217;BME280;65567;55.684;37.570;2024-03-06T03:12:11;100294.88;;;-1.46;46.29
70217;BME280;65567;55.684;37.570;2024-03-06T03:14:37;100300.03;;;-1.44;46.25
70217;BME280;65567;55.684;37.570;2024-03-06T03:17:05;100302.53;;;-1.51;46.23
70217;BME280;65567;55.684;37.570;2024-03-06T03:19:33;100307.66;;;-1.51;46.36
70217;BME280;65567;55.684;37.570;2024-03-06T03:21:59;100314.47;;;-1.53;45.86
70217;BME280;65567;55.684;37.570;2024-03-06T03:24:25;100315.38;;;-1.52;46.37
70217;BME280;65567;55.684;37.570;2024-03-06T03:26:53;100305.81;;;-1.59;46.45
70217;BME280;65567;55.684;37.570;2024-03-06T03:29:19;100295.44;;;-1.64;46.44
70217;BME280;65567;55.684;37.570;2024-03-06T03:31:46;100319.63;;;-1.51;46.26
70217;BME280;65567;55.684;37.570;2024-03-06T03:34:12;100324.75;;;-1.53;46.41
70217;BME280;65567;55.684;37.570;2024-03-06T03:36:41;100324.78;;;-1.51;46.17
70217;BME280;65567;55.684;37.570;2024-03-06T03:39:07;100312.72;;;-1.55;46.08
70217;BME280;65567;55.684;37.570;2024-03-06T03:41:47;100323.81;;;-1.58;46.17
70217;BME280;65567;55.684;37.570;2024-03-06T03:44:18;100321.25;;;-1.56;46.05
70217;BME280;65567;55.684;37.570;2024-03-06T03:46:46;100295.31;;;-1.72;46.12
70217;BME280;65567;55.684;37.570;2024-03-06T03:49:12;100317.94;;;-1.52;46.04
70217;BME280;65567;55.684;37.570;2024-03-06T03:51:38;100318.63;;;-1.61;45.95
70217;BME280;65567;55.684;37.570;2024-03-06T03:54:05;100311.66;;;-1.68;45.90
70217;BME280;65567;55.684;37.570;2024-03-06T03:56:31;100315.03;;;-1.72;46.06
70217;BME280;65567;55.684;37.570;2024-03-06T03:58:57;100321.06;;;-1.69;45.92
70217;BME280;65567;55.684;37.570;2024-03-06T04:01:24;100315.84;;;-1.75;45.84
70217;BME280;65567;55.684;37.570;2024-03-06T04:03:49;100323.56;;;-1.73;45.94
70217;BME280;65567;55.684;37.570;2024-03-06T04:06:16;100321.06;;;-1.69;45.60
70217;BME280;65567;55.684;37.570;2024-03-06T04:08:42;100327.00;;;-1.73;45.39
70217;BME280;65567;55.684;37.570;2024-03-06T04:11:08;100328.66;;;-1.76;45.35
70217;BME280;65567;55.684;37.570;2024-03-06T04:13:38;100320.91;;;-1.79;45.17
70217;BME280;65567;55.684;37.570;2024-03-06T04:16:04;100320.94;;;-1.78;45.14
70217;BME280;65567;55.684;37.570;2024-03-06T04:18:31;100307.84;;;-1.90;45.08
70217;BME280;65567;55.684;37.570;2024-03-06T04:21:04;100308.78;;;-1.88;45.01
70217;BME280;65567;55.684;37.570;2024-03-06T04:23:30;100307.06;;;-1.86;44.95
70217;BME280;65567;55.684;37.570;2024-03-06T04:25:56;100319.09;;;-1.85;45.11
70217;BME280;65567;55.684;37.570;2024-03-06T04:28:22;100312.44;;;-1.74;45.13
70217;BME280;65567;55.684;37.570;2024-03-06T04:30:48;100307.66;;;-1.51;45.11
70217;BME280;65567;55.684;37.570;2024-03-06T04:33:14;100309.00;;;-1.18;44.46
70217;BME280;65567;55.684;37.570;2024-03-06T04:35:41;100312.06;;;-0.82;43.45
70217;BME280;65567;55.684;37.570;2024-03-06T04:38:07;100310.78;;;-0.47;42.85
70217;BME280;65567;55.684;37.570;2024-03-06T04:40:34;100319.00;;;-0.03;42.03
70217;BME280;65567;55.684;37.570;2024-03-06T04:43:00;100314.22;;;0.39;41.35
70217;BME280;65567;55.684;37.570;2024-03-06T04:45:26;100292.06;;;0.66;40.41
70217;BME280;65567;55.684;37.570;2024-03-06T04:47:52;100314.69;;;1.10;39.67
70217;BME280;65567;55.684;37.570;2024-03-06T04:50:17;100314.88;;;1.44;38.73
70217;BME280;65567;55.684;37.570;2024-03-06T04:52:43;100308.94;;;1.84;38.65
70217;BME280;65567;55.684;37.570;2024-03-06T04:55:12;100306.44;;;2.24;37.91
70217;BME280;65567;55.684;37.570;2024-03-06T04:57:43;100309.00;;;2.64;37.30
70217;BME280;65567;55.684;37.570;2024-03-06T05:00:10;100292.53;;;3.07;36.87
70217;BME280;65567;55.684;37.570;2024-03-06T05:02:37;100301.00;;;3.54;36.55
70217;BME280;65567;55.684;37.570;2024-03-06T05:05:03;100285.25;;;3.93;35.99
70217;BME280;65567;55.684;37.570;2024-03-06T05:07:30;100295.22;;;4.45;35.12
70217;BME280;65567;55.684;37.570;2024-03-06T05:09:56;100294.00;;;4.82;33.92
70217;BME280;65567;55.684;37.570;2024-03-06T05:12:23;100303.13;;;5.22;33.88
70217;BME280;65567;55.684;37.570;2024-03-06T05:14:52;100301.72;;;5.63;33.25
70217;BME280;65567;55.684;37.570;2024-03-06T05:17:19;100303.78;;;6.06;32.54
70217;BME280;65567;55.684;37.570;2024-03-06T05:19:45;100297.13;;;6.43;31.78
70217;BME280;65567;55.684;37.570;2024-03-06T05:22:13;100281.91;;;6.71;30.92
70217;BME280;65567;55.684;37.570;2024-03-06T05:24:39;100297.91;;;7.00;30.10
70217;BME280;65567;55.684;37.570;2024-03-06T05:27:05;100292.31;;;7.18;29.76
70217;BME280;65567;55.684;37.570;2024-03-06T05:29:32;100298.69;;;7.47;29.63
70217;BME280;65567;55.684;37.570;2024-03-06T05:31:58;100291.97;;;7.76;28.89
70217;BME280;65567;55.684;37.570;2024-03-06T05:34:24;100289.56;;;8.06;29.13
70217;BME280;65567;55.684;37.570;2024-03-06T05:36:50;100296.53;;;8.43;28.17
70217;BME280;65567;55.684;37.570;2024-03-06T05:39:16;100289.75;;;8.72;27.64
70217;BME280;65567;55.684;37.570;2024-03-06T05:41:43;100297.56;;;9.05;27.53
70217;BME280;65567;55.684;37.570;2024-03-06T05:44:09;100296.66;;;9.37;26.88
70217;BME280;65567;55.684;37.570;2024-03-06T05:46:35;100291.50;;;9.66;26.35
70217;BME280;65567;55.684;37.570;2024-03-06T05:49:04;100304.66;;;9.92;25.92
70217;BME280;65567;55.684;37.570;2024-03-06T05:51:30;100283.25;;;10.08;25.42
70217;BME280;65567;55.684;37.570;2024-03-06T05:53:56;100299.06;;;10.32;24.80
70217;BME280;65567;55.684;37.570;2024-03-06T05:56:22;100300.06;;;10.56;24.77
70217;BME280;65567;55.684;37.570;2024-03-06T05:58:48;100303.59;;;10.80;24.31
70217;BME280;65567;55.684;37.570;2024-03-06T06:01:17;100302.94;;;10.99;23.94
70217;BME280;65567;55.684;37.570;2024-03-06T06:03:48;100296.19;;;11.17;23.67
70217;BME280;65567;55.684;37.570;2024-03-06T06:06:17;100299.13;;;11.33;23.11
70217;BME280;65567;55.684;37.570;2024-03-06T06:08:44;100302.78;;;11.52;22.92
70217;BME280;65567;55.684;37.570;2024-03-06T06:11:13;100299.63;;;11.66;22.48
70217;BME280;65567;55.684;37.570;2024-03-06T06:13:39;100294.44;;;11.87;22.27
70217;BME280;65567;55.684;37.570;2024-03-06T06:16:05;100296.38;;;12.05;22.22
70217;BME280;65567;55.684;37.570;2024-03-06T06:18:31;100286.25;;;12.18;21.55
70217;BME280;65567;55.684;37.570;2024-03-06T06:20:58;100299.41;;;11.95;21.30
70217;BME280;65567;55.684;37.570;2024-03-06T06:23:23;100298.16;;;11.59;21.36
70217;BME280;65567;55.684;37.570;2024-03-06T06:25:49;100292.16;;;11.08;21.69
70217;BME280;65567;55.684;37.570;2024-03-06T06:28:15;100296.81;;;10.74;22.38
70217;BME280;65567;55.684;37.570;2024-03-06T06:30:41;100299.28;;;10.52;22.61
70217;BME280;65567;55.684;37.570;2024-03-06T06:33:07;100306.03;;;10.31;22.77
70217;BME280;65567;55.684;37.570;2024-03-06T06:35:34;100313.00;;;10.04;22.18
70217;BME280;65567;55.684;37.570;2024-03-06T06:38:02;100302.84;;;9.66;23.28
70217;BME280;65567;55.684;37.570;2024-03-06T06:40:30;100319.88;;;9.50;23.29
70217;BME280;65567;55.684;37.570;2024-03-06T06:42:56;100302.22;;;9.26;23.24
70217;BME280;65567;55.684;37.570;2024-03-06T06:45:22;100313.28;;;9.03;23.47
70217;BME280;65567;55.684;37.570;2024-03-06T06:47:48;100295.06;;;8.67;23.60
70217;BME280;65567;55.684;37.570;2024-03-06T06:50:15;100308.84;;;8.38;23.86
70217;BME280;65567;55.684;37.570;2024-03-06T06:52:41;100321.78;;;8.05;24.02
70217;BME280;65567;55.684;37.570;2024-03-06T06:55:07;100317.25;;;7.74;24.60
70217;BME280;65567;55.684;37.570;2024-03-06T06:57:37;100323.00;;;7.49;24.48
70217;BME280;65567;55.684;37.570;2024-03-06T07:00:06;100321.66;;;7.28;24.91
70217;BME280;65567;55.684;37.570;2024-03-06T07:02:41;100322.69;;;7.21;25.59
70217;BME280;65567;55.684;37.570;2024-03-06T07:05:07;100322.13;;;7.03;25.63
70217;BME280;65567;55.684;37.570;2024-03-06T07:07:34;100325.53;;;7.07;25.89
70217;BME280;65567;55.684;37.570;2024-03-06T07:10:01;100320.44;;;7.01;25.84
70217;BME280;65567;55.684;37.570;2024-03-06T07:12:26;100317.78;;;7.04;25.87
70217;BME280;65567;55.684;37.570;2024-03-06T07:14:52;100324.47;;;7.17;25.97
70217;BME280;65567;55.684;37.570;2024-03-06T07:17:18;100322.38;;;7.35;26.04
70217;BME280;65567;55.684;37.570;2024-03-06T07:19:43;100321.28;;;7.48;26.10
70217;BME280;65567;55.684;37.570;2024-03-06T07:22:09;100322.78;;;7.58;26.50
70217;BME280;65567;55.684;37.570;2024-03-06T07:24:35;100314.53;;;7.78;26.21
70217;BME280;65567;55.684;37.570;2024-03-06T07:27:00;100334.19;;;7.95;25.65
70217;BME280;65567;55.684;37.570;2024-03-06T07:29:29;100325.63;;;7.88;26.24
70217;BME280;65567;55.684;37.570;2024-03-06T07:31:55;100327.03;;;8.03;26.10
70217;BME280;65567;55.684;37.570;2024-03-06T07:34:20;100324.94;;;8.19;25.51
70217;BME280;65567;55.684;37.570;2024-03-06T07:36:49;100325.75;;;8.21;25.33
70217;BME280;65567;55.684;37.570;2024-03-06T07:39:15;100333.53;;;8.23;25.36
70217;BME280;65567;55.684;37.570;2024-03-06T07:41:41;100328.44;;;8.18;25.04
70217;BME280;65567;55.684;37.570;2024-03-06T07:44:09;100331.16;;;8.14;24.89
70217;BME280;65567;55.684;37.570;2024-03-06T07:46:35;100340.09;;;8.03;24.70
70217;BME280;65567;55.684;37.570;2024-03-06T07:49:02;100336.00;;;7.91;25.43
70217;BME280;65567;55.684;37.570;2024-03-06T07:51:29;100330.78;;;7.91;25.23
70217;BME280;65567;55.684;37.570;2024-03-06T07:53:55;100341.13;;;7.94;24.97
70217;BME280;65567;55.684;37.570;2024-03-06T07:56:23;100335.88;;;7.98;25.13
70217;BME280;65567;55.684;37.570;2024-03-06T07:58:49;100329.81;;;7.96;24.74
70217;BME280;65567;55.684;37.570;2024-03-06T08:01:15;100339.22;;;8.03;24.85
70217;BME280;65567;55.684;37.570;2024-03-06T08:03:43;100321.28;;;7.89;24.54
70217;BME280;65567;55.684;37.570;2024-03-06T08:06:09;100342.97;;;7.91;24.73
70217;BME280;65567;55.684;37.570;2024-03-06T08:08:36;100325.78;;;7.82;24.81
70217;BME280;65567;55.684;37.570;2024-03-06T08:11:02;100341.81;;;8.04;24.88
70217;BME280;65567;55.684;37.570;2024-03-06T08:13:28;100346.00;;;8.10;24.68
70217;BME280;65567;55.684;37.570;2024-03-06T08:15:55;100339.16;;;8.06;24.53
70217;BME280;65567;55.684;37.570;2024-03-06T08:18:20;100348.44;;;8.19;24.39
70217;BME280;65567;55.684;37.570;2024-03-06T08:20:46;100348.97;;;8.34;23.77
70217;BME280;65567;55.684;37.570;2024-03-06T08:23:12;100352.34;;;8.37;23.93
70217;BME280;65567;55.684;37.570;2024-03-06T08:25:38;100344.22;;;8.51;23.78
70217;BME280;65567;55.684;37.570;2024-03-06T08:28:04;100343.63;;;8.76;23.48
70217;BME280;65567;55.684;37.570;2024-03-06T08:30:31;100350.22;;;8.89;23.58
70217;BME280;65567;55.684;37.570;2024-03-06T08:32:57;100331.09;;;8.89;22.83
70217;BME280;65567;55.684;37.570;2024-03-06T08:35:23;100331.59;;;9.03;23.05
70217;BME280;65567;55.684;37.570;2024-03-06T08:37:50;100342.53;;;9.18;22.36
70217;BME280;65567;55.684;37.570;2024-03-06T08:40:16;100333.91;;;9.14;22.11
70217;BME280;65567;55.684;37.570;2024-03-06T08:42:46;100337.03;;;9.27;22.39
70217;BME280;65567;55.684;37.570;2024-03-06T08:45:12;100335.94;;;9.36;22.35
70217;BME280;65567;55.684;37.570;2024-03-06T08:47:39;100332.16;;;9.46;22.59
70217;BME280;65567;55.684;37.570;2024-03-06T08:50:09;100343.25;;;9.56;22.54
70217;BME280;65567;55.684;37.570;2024-03-06T08:52:35;100338.69;;;9.63;22.05
70217;BME280;65567;55.684;37.570;2024-03-06T08:55:04;100336.69;;;9.71;22.53
70217;BME280;65567;55.684;37.570;2024-03-06T08:57:34;100332.50;;;9.65;22.28
70217;BME280;65567;55.684;37.570;2024-03-06T09:00:01;100333.25;;;9.69;21.94
70217;BME280;65567;55.684;37.570;2024-03-06T09:02:28;100333.06;;;9.75;22.41
70217;BME280;65567;55.684;37.570;2024-03-06T09:04:53;100332.06;;;9.81;21.94
70217;BME280;65567;55.684;37.570;2024-03-06T09:07:19;100331.09;;;9.83;22.08
70217;BME280;65567;55.684;37.570;2024-03-06T09:09:51;100331.13;;;9.82;21.98
70217;BME280;65567;55.684;37.570;2024-03-06T09:12:17;100313.31;;;9.66;21.74
70217;BME280;65567;55.684;37.570;2024-03-06T09:14:43;100324.50;;;9.70;21.75
70217;BME280;65567;55.684;37.570;2024-03-06T09:17:11;100326.19;;;9.72;22.03
70217;BME280;65567;55.684;37.570;2024-03-06T09:19:41;100320.09;;;9.72;21.23
70217;BME280;65567;55.684;37.570;2024-03-06T09:22:07;100322.63;;;9.75;21.67
70217;BME280;65567;55.684;37.570;2024-03-06T09:24:33;100322.88;;;9.66;21.32
70217;BME280;65567;55.684;37.570;2024-03-06T09:27:02;100326.84;;;9.49;21.45
70217;BME280;65567;55.684;37.570;2024-03-06T09:29:28;100318.38;;;9.41;22.10
70217;BME280;65567;55.684;37.570;2024-03-06T09:31:56;100297.03;;;9.25;21.74
70217;BME280;65567;55.684;37.570;2024-03-06T09:34:24;100316.28;;;9.22;21.79
70217;BME280;65567;55.684;37.570;2024-03-06T09:36:50;100311.09;;;9.21;21.83
70217;BME280;65567;55.684;37.570;2024-03-06T09:39:17;100310.16;;;9.22;22.18
70217;BME280;65567;55.684;37.570;2024-03-06T09:41:54;100300.63;;;9.21;21.86
70217;BME280;65567;55.684;37.570;2024-03-06T09:44:23;100305.09;;;9.17;22.05
70217;BME280;65567;55.684;37.570;2024-03-06T09:46:49;100298.53;;;9.34;22.05
70217;BME280;65567;55.684;37.570;2024-03-06T09:49:18;100295.00;;;9.35;22.18
70217;BME280;65567;55.684;37.570;2024-03-06T09:51:45;100308.00;;;9.38;21.52
70217;BME280;65567;55.684;37.570;2024-03-06T09:54:14;100306.97;;;9.12;21.68
70217;BME280;65567;55.684;37.570;2024-03-06T09:56:46;100297.03;;;8.93;21.66
70217;BME280;65567;55.684;37.570;2024-03-06T09:59:16;100299.84;;;8.84;21.75
70217;BME280;65567;55.684;37.570;2024-03-06T10:01:55;100293.69;;;8.88;22.59
70217;BME280;65567;55.684;37.570;2024-03-06T10:04:26;100301.09;;;9.04;22.23
70217;BME280;65567;55.684;37.570;2024-03-06T10:07:01;100303.53;;;9.10;22.39
70217;BME280;65567;55.684;37.570;2024-03-06T10:09:28;100287.00;;;9.09;21.82
70217;BME280;65567;55.684;37.570;2024-03-06T10:11:54;100305.19;;;9.13;21.71
70217;BME280;65567;55.684;37.570;2024-03-06T10:14:22;100296.56;;;9.11;21.98
70217;BME280;65567;55.684;37.570;2024-03-06T10:16:55;100292.13;;;9.13;21.94
70217;BME280;65567;55.684;37.570;2024-03-06T10:19:22;100292.00;;;9.17;21.63
70217;BME280;65567;55.684;37.570;2024-03-06T10:21:49;100292.06;;;9.16;21.92
70217;BME280;65567;55.684;37.570;2024-03-06T10:24:28;100291.28;;;9.12;21.23
70217;BME280;65567;55.684;37.570;2024-03-06T10:26:58;100289.00;;;9.00;22.07
70217;BME280;65567;55.684;37.570;2024-03-06T10:29:28;100290.66;;;9.02;21.70
70217;BME280;65567;55.684;37.570;2024-03-06T10:31:58;100293.38;;;8.99;21.74
70217;BME280;65567;55.684;37.570;2024-03-06T10:34:25;100289.72;;;9.05;21.85
70217;BME280;65567;55.684;37.570;2024-03-06T10:37:09;100284.69;;;8.99;21.64
70217;BME280;65567;55.684;37.570;2024-03-06T10:39:36;100283.97;;;8.93;21.19
70217;BME280;65567;55.684;37.570;2024-03-06T10:42:07;100280.72;;;8.84;21.48
70217;BME280;65567;55.684;37.570;2024-03-06T10:44:34;100278.88;;;8.87;21.38
70217;BME280;65567;55.684;37.570;2024-03-06T10:47:09;100276.13;;;8.93;21.53
70217;BME280;65567;55.684;37.570;2024-03-06T10:49:36;100283.03;;;8.96;21.45
70217;BME280;65567;55.684;37.570;2024-03-06T10:52:13;100284.84;;;8.92;21.52
70217;BME280;65567;55.684;37.570;2024-03-06T10:54:43;100272.78;;;8.88;21.29
70217;BME280;65567;55.684;37.570;2024-03-06T10:57:11;100273.28;;;9.01;21.49
70217;BME280;65567;55.684;37.570;2024-03-06T10:59:38;100285.91;;;9.17;21.58
70217;BME280;65567;55.684;37.570;2024-03-06T11:02:04;100277.06;;;9.22;21.69
70217;BME280;65567;55.684;37.570;2024-03-06T11:04:31;100273.34;;;9.30;21.56
70217;BME280;65567;55.684;37.570;2024-03-06T11:07:05;100263.00;;;9.26;21.10
70217;BME280;65567;55.684;37.570;2024-03-06T11:09:36;100254.78;;;9.09;20.90
70217;BME280;65567;55.684;37.570;2024-03-06T11:12:02;100269.44;;;9.15;21.32
70217;BME280;65567;55.684;37.570;2024-03-06T11:14:31;100264.88;;;9.21;21.55
70217;BME280;65567;55.684;37.570;2024-03-06T11:17:04;100262.63;;;9.39;21.45
70217;BME280;65567;55.684;37.570;2024-03-06T11:19:31;100257.16;;;9.48;21.11
70217;BME280;65567;55.684;37.570;2024-03-06T11:21:58;100257.88;;;9.53;21.27
70217;BME280;65567;55.684;37.570;2024-03-06T11:24:34;100260.09;;;9.66;21.30
70217;BME280;65567;55.684;37.570;2024-03-06T11:27:03;100249.53;;;9.69;21.44
70217;BME280;65567;55.684;37.570;2024-03-06T11:30:09;100253.69;;;9.76;21.29
70217;BME280;65567;55.684;37.570;2024-03-06T11:33:00;100254.69;;;9.72;20.78
70217;BME280;65567;55.684;37.570;2024-03-06T11:35:29;100242.41;;;9.74;21.42
70217;BME280;65567;55.684;37.570;2024-03-06T11:38:03;100249.94;;;9.85;21.29
70217;BME280;65567;55.684;37.570;2024-03-06T11:40:51;100239.53;;;9.82;21.08
70217;BME280;65567;55.684;37.570;2024-03-06T11:43:25;100238.03;;;9.74;22.34
70217;BME280;65567;55.684;37.570;2024-03-06T11:46:07;100240.00;;;9.96;21.51
70217;BME280;65567;55.684;37.570;2024-03-06T11:48:35;100234.78;;;9.95;21.42
70217;BME280;65567;55.684;37.570;2024-03-06T11:51:01;100230.56;;;9.90;21.39
70217;BME280;65567;55.684;37.570;2024-03-06T11:53:30;100228.88;;;9.88;21.44
70217;BME280;65567;55.684;37.570;2024-03-06T11:55:58;100226.38;;;9.85;21.36
70217;BME280;65567;55.684;37.570;2024-03-06T11:58:23;100226.44;;;9.83;21.40
70217;BME280;65567;55.684;37.570;2024-03-06T12:00:49;100227.22;;;9.85;21.15
70217;BME280;65567;55.684;37.570;2024-03-06T12:03:18;100225.00;;;9.73;21.09
70217;BME280;65567;55.684;37.570;2024-03-06T12:05:49;100213.06;;;9.64;21.47
70217;BME280;65567;55.684;37.570;2024-03-06T12:08:15;100222.72;;;9.62;21.84
70217;BME280;65567;55.684;37.570;2024-03-06T12:10:41;100209.97;;;9.51;21.37
70217;BME280;65567;55.684;37.570;2024-03-06T12:13:07;100193.66;;;9.43;20.94
70217;BME280;65567;55.684;37.570;2024-03-06T12:15:33;100205.69;;;9.49;20.93
70217;BME280;65567;55.684;37.570;2024-03-06T12:18:01;100194.91;;;9.30;20.81
70217;BME280;65567;55.684;37.570;2024-03-06T12:20:27;100205.47;;;9.26;21.02
70217;BME280;65567;55.684;37.570;2024-03-06T12:22:57;100206.03;;;9.08;21.84
70217;BME280;65567;55.684;37.570;2024-03-06T12:25:26;100204.63;;;8.95;22.05
70217;BME280;65567;55.684;37.570;2024-03-06T12:28:05;100195.91;;;8.96;21.61
70217;BME280;65567;55.684;37.570;2024-03-06T12:30:41;100201.78;;;9.04;21.49
70217;BME280;65567;55.684;37.570;2024-03-06T12:33:11;100198.47;;;8.97;21.71
70217;BME280;65567;55.684;37.570;2024-03-06T12:35:46;100198.78;;;8.86;22.04
70217;BME280;65567;55.684;37.570;2024-03-06T12:38:14;100139.81;;;8.46;21.92
70217;BME280;65567;55.684;37.570;2024-03-06T12:40:41;100197.13;;;8.84;22.15
70217;BME280;65567;55.684;37.570;2024-03-06T12:43:09;100198.84;;;8.85;22.43
70217;BME280;65567;55.684;37.570;2024-03-06T12:45:36;100192.09;;;8.76;22.12
70217;BME280;65567;55.684;37.570;2024-03-06T12:48:03;100199.94;;;8.76;22.58